Time;durP1;ratioP1;P1;durP2;ratioP2;P2;SDS_P1;SDS_P2;PMS_P1;PMS_P2;Temp;Humidity;BMP_temperature;BMP_pressure;BME280_temperature;BME280_humidity;BME280_pressure;Samples;Min_cycle;Max_cycle;Signal;HPM_P1;HPM_P2
2023/01/04 00:01:22;;;;;;;52.70;30.60;;;;;;;1.51;93.23;99700.09;103040;1291;22466;-77
2023/01/04 00:03:50;;;;;;;65.80;34.60;;;;;;;1.46;93.37;99698.64;103115;1313;22490;-77
2023/01/04 00:06:19;;;;;;;77.90;39.00;;;;;;;1.43;93.81;99696.38;102976;1313;137722;-76
2023/01/04 00:08:46;;;;;;;74.20;40.30;;;;;;;1.43;94.34;99695.38;103199;1294;22478;-76
2023/01/04 00:11:19;;;;;;;81.20;41.60;;;;;;;1.42;94.73;99692.24;102997;1313;137711;-77
2023/01/04 00:13:50;;;;;;;78.50;41.10;;;;;;;1.40;94.82;99694.67;103300;1289;22466;-77
2023/01/04 00:16:22;;;;;;;70.10;36.50;;;;;;;1.39;94.87;99698.62;103232;1306;23906;-77
2023/01/04 00:18:51;;;;;;;67.20;35.50;;;;;;;1.38;94.86;99696.39;102937;1313;22517;-77
2023/01/04 00:21:22;;;;;;;65.10;36.00;;;;;;;1.36;94.94;99698.86;103094;1298;22933;-77
2023/01/04 00:23:51;;;;;;;62.40;33.00;;;;;;;1.35;94.95;99693.48;102919;1313;138613;-77
2023/01/04 00:26:21;;;;;;;58.50;31.50;;;;;;;1.33;95.07;99695.12;103324;1305;25566;-77
2023/01/04 00:28:57;;;;;;;61.30;33.30;;;;;;;1.32;95.00;99704.52;103074;1288;138881;-77
2023/01/04 00:31:25;;;;;;;67.30;35.80;;;;;;;1.31;95.46;99706.03;103669;1306;22474;-77
2023/01/04 00:33:54;;;;;;;71.00;35.60;;;;;;;1.30;95.60;99707.87;103104;1288;25222;-76
2023/01/04 00:36:21;;;;;;;67.60;34.60;;;;;;;1.30;95.61;99702.38;102912;1313;138396;-76
2023/01/04 00:39:05;;;;;;;59.40;33.10;;;;;;;1.30;95.82;99696.30;102940;1313;25337;-76
2023/01/04 00:41:37;;;;;;;63.60;33.80;;;;;;;1.27;95.61;99700.27;103053;1294;137856;-76
2023/01/04 00:44:05;;;;;;;65.00;33.60;;;;;;;1.25;95.44;99696.96;103062;1298;25220;-77
2023/01/04 00:46:34;;;;;;;64.10;31.90;;;;;;;1.21;95.30;99696.15;103594;1305;137924;-77
2023/01/04 00:49:01;;;;;;;63.60;33.10;;;;;;;1.17;95.04;99693.70;103155;1313;22520;-77
2023/01/04 00:51:29;;;;;;;71.10;35.40;;;;;;;1.12;95.05;99696.78;103188;1311;25313;-77
2023/01/04 00:53:58;;;;;;;66.20;35.90;;;;;;;1.09;95.33;99692.80;103014;1306;137703;-77
2023/01/04 00:56:28;;;;;;;62.70;35.10;;;;;;;1.07;95.58;99689.64;102987;1301;25220;-76
2023/01/04 00:58:57;;;;;;;73.90;37.30;;;;;;;1.07;95.81;99688.98;102963;1312;138038;-76
2023/01/04 01:01:26;;;;;;;77.00;38.60;;;;;;;1.06;95.94;99688.84;102965;1313;22489;-77
2023/01/04 01:03:55;;;;;;;83.60;40.20;;;;;;;1.06;96.09;99691.19;102959;1306;25323;-77
2023/01/04 01:06:24;;;;;;;80.80;40.40;;;;;;;1.05;96.30;99688.91;103041;1313;137835;-76
2023/01/04 01:08:52;;;;;;;72.90;38.40;;;;;;;1.05;96.41;99689.17;103100;1313;22471;-77
2023/01/04 01:11:20;;;;;;;77.80;39.30;;;;;;;1.04;96.22;99690.83;102941;1312;137925;-77
2023/01/04 01:13:48;;;;;;;79.00;39.30;;;;;;;1.02;96.21;99690.12;103471;1296;22591;-76
2023/01/04 01:16:19;;;;;;;80.70;38.80;;;;;;;1.00;96.14;99687.45;103860;1303;22445;-77
2023/01/04 01:18:47;;;;;;;79.40;38.50;;;;;;;0.99;96.35;99687.55;103125;1305;138752;-77
2023/01/04 01:21:18;;;;;;;72.90;38.60;;;;;;;0.98;96.29;99681.80;103609;1291;23540;-77
2023/01/04 01:23:47;;;;;;;74.50;39.00;;;;;;;0.96;96.27;99681.98;103447;1288;137766;-76
2023/01/04 01:26:17;;;;;;;76.40;38.00;;;;;;;0.93;96.16;99679.13;103208;1305;22496;-77
2023/01/04 01:28:45;;;;;;;63.90;34.10;;;;;;;0.93;96.38;99681.20;102968;1298;137871;-76
2023/01/04 01:31:16;;;;;;;68.30;34.00;;;;;;;0.92;96.57;99681.06;103253;1297;26652;-76
2023/01/04 01:33:45;;;;;;;64.10;32.20;;;;;;;0.92;96.63;99682.14;104314;1281;24079;-77
2023/01/04 01:36:14;;;;;;;65.00;30.40;;;;;;;0.91;96.76;99683.50;103046;1304;137759;-77
2023/01/04 01:38:42;;;;;;;59.90;30.70;;;;;;;0.90;96.50;99680.41;103961;1294;23306;-77
2023/01/04 01:41:25;;;;;;;61.40;30.90;;;;;;;0.88;96.36;99676.67;102859;1307;137974;-77
2023/01/04 01:44:29;;;;;;;61.80;31.30;;;;;;;0.86;96.21;99674.95;102953;1300;22983;-76
2023/01/04 01:46:57;;;;;;;53.50;28.30;;;;;;;0.84;96.24;99674.23;103236;1306;137886;-76
2023/01/04 01:49:35;;;;;;;57.70;29.30;;;;;;;0.82;96.59;99672.80;103073;1306;22528;-77
2023/01/04 01:52:05;;;;;;;65.20;32.30;;;;;;;0.82;96.57;99672.11;103060;1296;22476;-77
2023/01/04 01:54:41;;;;;;;54.90;29.20;;;;;;;0.81;96.51;99674.69;103974;1305;137801;-77
2023/01/04 01:57:12;;;;;;;51.20;26.70;;;;;;;0.80;96.47;99682.36;103480;1305;26944;-76
2023/01/04 01:59:43;;;;;;;53.70;26.10;;;;;;;0.75;95.81;99687.63;103028;1305;137765;-77
2023/01/04 02:02:11;;;;;;;57.00;27.50;;;;;;;0.69;95.47;99684.48;103101;1312;24340;-77
2023/01/04 02:04:42;;;;;;;49.30;25.70;;;;;;;0.66;95.78;99685.32;103069;1310;138960;-76
2023/01/04 02:07:13;;;;;;;51.60;26.00;;;;;;;0.64;95.76;99685.86;102926;1291;22880;-77
2023/01/04 02:09:41;;;;;;;51.00;26.40;;;;;;;0.63;96.11;99690.05;103188;1313;22490;-76
2023/01/04 02:12:13;;;;;;;57.60;27.30;;;;;;;0.65;96.48;99693.98;103300;1297;138468;-77
2023/01/04 02:14:43;;;;;;;57.00;29.00;;;;;;;0.68;96.89;99694.04;103151;1296;24281;-77
2023/01/04 02:17:19;;;;;;;53.60;28.30;;;;;;;0.71;97.17;99691.95;103056;1310;137980;-77
2023/01/04 02:19:55;;;;;;;54.60;28.80;;;;;;;0.75;97.47;99693.16;103256;1300;22476;-76
2023/01/04 02:22:34;;;;;;;54.10;28.70;;;;;;;0.79;97.64;99691.52;103421;1310;22476;-77
2023/01/04 02:25:16;;;;;;;51.50;28.80;;;;;;;0.82;97.90;99684.73;103258;1302;24311;-77
2023/01/04 02:27:56;;;;;;;56.00;27.90;;;;;;;0.86;97.84;99682.55;103379;1289;25565;-76
2023/01/04 02:30:48;;;;;;;59.10;29.60;;;;;;;0.90;97.98;99681.51;103532;1298;137776;-77
2023/01/04 02:33:34;;;;;;;57.60;30.40;;;;;;;0.93;98.16;99674.75;103272;1291;24295;-76
2023/01/04 02:36:19;;;;;;;57.90;29.50;;;;;;;0.97;98.21;99668.85;103084;1306;137763;-76
2023/01/04 02:38:56;;;;;;;54.90;28.90;;;;;;;0.98;98.01;99661.71;103171;1298;22474;-77
2023/01/04 02:41:38;;;;;;;58.60;28.70;;;;;;;0.99;97.72;99666.51;103268;1288;137755;-77
2023/01/04 02:47:13;;;;;;;57.70;28.60;;;;;;;0.98;97.74;99658.48;103108;1296;138052;-77
2023/01/04 02:52:27;;;;;;;49.20;27.00;;;;;;;0.97;97.51;99659.56;103062;1313;22485;-78
2023/01/04 02:54:57;;;;;;;46.10;23.50;;;;;;;0.88;96.11;99657.15;103484;1294;139274;-77
2023/01/04 02:57:30;;;;;;;;;;;;;;;0.76;95.43;99660.19;104377;1296;22453;-78
2023/01/04 03:00:14;;;;;;;44.00;23.20;;;;;;;0.61;94.74;99654.33;103456;1297;123834;-78
2023/01/04 03:08:40;;;;;;;56.70;28.50;;;;;;;0.50;96.79;99643.80;102950;1281;22473;-78
2023/01/04 03:14:03;;;;;;;50.80;27.30;;;;;;;0.51;97.24;99639.08;103291;1289;22501;-78
2023/01/04 03:16:33;;;;;;;58.60;29.70;;;;;;;0.51;97.45;99636.20;103788;1284;22228;-79
2023/01/04 03:19:08;;;;;;;60.10;28.00;;;;;;;0.51;97.36;99631.92;103443;1304;137671;-79
2023/01/04 03:21:37;;;;;;;54.50;27.60;;;;;;;0.51;97.39;99629.60;103115;1313;24245;-79
2023/01/04 03:35:47;;;;;;;50.70;28.20;;;;;;;0.36;96.89;99614.61;102844;1293;138167;-82
2023/01/04 03:50:30;;;;;;;63.70;30.40;;;;;;;0.21;97.39;99613.40;102998;1307;22528;-81
2023/01/04 03:52:58;;;;;;;63.70;33.30;;;;;;;0.19;97.83;99613.60;102931;1309;138082;-81
2023/01/04 03:55:29;;;;;;;67.90;35.10;;;;;;;0.20;98.11;99612.45;103017;1312;24326;-81
2023/01/04 03:57:58;;;;;;;67.10;35.00;;;;;;;0.20;98.22;99609.17;103072;1290;22927;-81
2023/01/04 04:00:27;;;;;;;66.20;33.10;;;;;;;0.21;98.47;99611.06;103119;1306;137765;-80
2023/01/04 04:03:05;;;;;;;60.60;33.20;;;;;;;0.21;98.34;99612.50;103110;1313;24472;-80
2023/01/04 04:08:24;;;;;;;60.70;33.10;;;;;;;0.20;98.18;99612.05;103175;1300;25941;-80
2023/01/04 04:10:53;;;;;;;61.90;33.20;;;;;;;0.19;97.86;99613.45;103174;1298;138920;-80
2023/01/04 04:13:21;;;;;;;58.20;30.30;;;;;;;0.14;97.66;99612.09;103275;1312;25306;-80
2023/01/04 04:15:51;;;;;;;57.30;30.00;;;;;;;0.10;97.24;99607.09;103442;1312;24322;-79
2023/01/04 04:18:20;;;;;;;60.70;30.70;;;;;;;0.06;97.16;99603.75;103131;1284;136677;-79
2023/01/04 04:20:56;;;;;;;59.40;31.00;;;;;;;0.04;97.23;99602.05;103572;1298;22534;-79
2023/01/04 04:23:25;;;;;;;58.90;30.40;;;;;;;0.00;97.27;99602.18;103194;1311;137915;-79
2023/01/04 04:25:55;;;;;;;61.50;33.20;;;;;;;-0.01;97.58;99598.17;103448;1284;25336;-79
2023/01/04 04:28:26;;;;;;;65.10;33.90;;;;;;;-0.01;97.59;99593.56;103467;1306;22686;-79
2023/01/04 04:30:56;;;;;;;70.90;34.10;;;;;;;-0.02;97.71;99595.61;103389;1284;138151;-77
2023/01/04 04:33:26;;;;;;;71.70;35.40;;;;;;;-0.02;97.75;99596.90;103519;1305;22593;-76
2023/01/04 04:36:03;;;;;;;67.40;33.40;;;;;;;-0.02;98.09;99600.77;103449;1303;137910;-77
2023/01/04 04:38:31;;;;;;;69.40;36.40;;;;;;;-0.02;97.76;99600.63;103650;1312;22912;-77
2023/01/04 04:41:37;;;;;;;70.70;37.80;;;;;;;-0.04;97.92;99599.86;103234;1293;138085;-77
2023/01/04 04:44:19;;;;;;;72.60;38.20;;;;;;;-0.05;98.15;99604.99;104003;1304;24299;-77
2023/01/04 04:47:07;;;;;;;73.90;38.80;;;;;;;-0.06;98.05;99603.84;103946;1297;137714;-77
2023/01/04 04:49:36;;;;;;;74.60;36.60;;;;;;;-0.06;98.05;99596.88;104060;1283;22548;-77
2023/01/04 04:52:07;;;;;;;76.20;40.10;;;;;;;-0.06;98.30;99597.95;103960;1307;22679;-76
2023/01/04 04:54:34;;;;;;;68.70;37.10;;;;;;;-0.04;98.33;99592.08;104060;1312;138222;-77
2023/01/04 04:57:01;;;;;;;76.20;38.70;;;;;;;-0.02;98.51;99587.61;104156;1291;22445;-77
2023/01/04 04:59:28;;;;;;;73.70;38.40;;;;;;;-0.01;98.65;99582.69;104153;1313;138239;-77
2023/01/04 05:01:56;;;;;;;69.60;37.80;;;;;;;-0.01;98.29;99577.30;104450;1297;22432;-77
2023/01/04 05:04:24;;;;;;;71.00;38.30;;;;;;;-0.02;98.00;99576.01;104548;1311;22513;-77
2023/01/04 05:06:51;;;;;;;72.10;37.60;;;;;;;-0.04;97.92;99571.36;104370;1308;137879;-77
2023/01/04 05:09:19;;;;;;;76.70;38.20;;;;;;;-0.07;97.52;99569.09;104401;1289;22486;-77
2023/01/04 05:14:33;;;;;;;72.50;36.80;;;;;;;-0.12;97.20;99554.48;103864;1294;22492;-77
2023/01/04 05:17:01;;;;;;;80.00;40.30;;;;;;;-0.15;97.18;99550.52;103496;1312;138424;-77
2023/01/04 05:19:28;;;;;;;72.80;38.40;;;;;;;-0.16;97.47;99547.57;103386;1312;24493;-77
2023/01/04 05:21:55;;;;;;;73.90;39.20;;;;;;;-0.16;97.69;99542.41;103331;1284;25406;-77
2023/01/04 05:24:23;;;;;;;75.80;39.20;;;;;;;-0.17;97.75;99533.92;103254;1294;138016;-77
2023/01/04 05:26:51;;;;;;;79.90;41.10;;;;;;;-0.19;97.46;99530.52;103148;1304;22532;-77
2023/01/04 05:32:05;;;;;;;78.50;41.00;;;;;;;-0.22;97.69;99537.02;103133;1291;23921;-78
2023/01/04 05:34:32;;;;;;;79.60;41.70;;;;;;;-0.22;97.87;99541.48;103022;1307;23766;-78
2023/01/04 05:36:59;;;;;;;79.10;40.90;;;;;;;-0.20;98.16;99541.33;102894;1297;138153;-77
2023/01/04 05:39:27;;;;;;;64.10;34.40;;;;;;;-0.16;98.71;99542.05;103031;1298;22481;-77
2023/01/04 05:44:40;;;;;;;63.20;35.50;;;;;;;-0.17;98.69;99533.36;103161;1297;22605;-77
2023/01/04 05:47:08;;;;;;;71.90;37.60;;;;;;;-0.19;98.33;99539.23;103056;1291;139162;-78
2023/01/04 05:49:36;;;;;;;70.30;38.60;;;;;;;-0.21;98.35;99536.38;103102;1285;25398;-78
2023/01/04 05:52:03;;;;;;;68.10;36.00;;;;;;;-0.23;98.24;99534.98;103200;1297;22509;-78
2023/01/04 05:54:31;;;;;;;68.80;35.80;;;;;;;-0.25;98.21;99543.58;103543;1307;137894;-78
2023/01/04 05:56:59;;;;;;;67.70;34.30;;;;;;;-0.30;98.05;99542.98;102992;1312;24308;-78
2023/01/04 05:59:26;;;;;;;81.10;37.80;;;;;;;-0.38;97.43;99537.83;103101;1307;138143;-78
2023/01/04 06:01:53;;;;;;;66.80;35.90;;;;;;;-0.45;97.19;99539.48;103020;1306;22488;-78
2023/01/04 06:04:21;;;;;;;68.90;34.50;;;;;;;-0.51;97.22;99541.44;103307;1287;25373;-78
2023/01/04 06:06:48;;;;;;;68.90;36.60;;;;;;;-0.58;97.11;99537.64;102961;1313;137980;-78
2023/01/04 06:09:15;;;;;;;60.90;33.20;;;;;;;-0.59;97.76;99535.39;103083;1291;25359;-78
2023/01/04 06:11:42;;;;;;;65.20;32.60;;;;;;;-0.61;97.78;99531.17;102926;1307;139688;-78
2023/01/04 06:14:10;;;;;;;56.10;30.40;;;;;;;-0.64;97.42;99531.43;103212;1298;22522;-77
2023/01/04 06:16:38;;;;;;;54.20;30.30;;;;;;;-0.67;97.45;99531.93;103175;1284;25402;-77
2023/01/04 06:19:05;;;;;;;60.30;32.50;;;;;;;-0.69;97.65;99533.00;102674;1300;140206;-77
2023/01/04 06:21:32;;;;;;;59.10;31.80;;;;;;;-0.71;97.91;99529.45;103148;1295;22469;-77
2023/01/04 06:23:59;;;;;;;59.70;30.80;;;;;;;-0.73;97.61;99527.33;102813;1298;138464;-77
2023/01/04 06:26:27;;;;;;;63.00;32.20;;;;;;;-0.76;97.44;99524.33;103743;1307;24017;-77
2023/01/04 06:28:54;;;;;;;61.30;32.60;;;;;;;-0.79;97.46;99520.73;103561;1294;138908;-77
2023/01/04 06:31:23;;;;;;;64.70;32.90;;;;;;;-0.82;97.49;99517.47;103245;1305;23441;-76
2023/01/04 06:33:50;;;;;;;60.10;33.50;;;;;;;-0.83;97.70;99515.05;104077;1311;23506;-76
2023/01/04 06:36:17;;;;;;;61.30;33.90;;;;;;;-0.83;97.69;99508.24;102840;1313;139134;-76
2023/01/04 06:38:44;;;;;;;66.10;33.70;;;;;;;-0.84;97.72;99501.98;103403;1306;22541;-76
2023/01/04 06:41:11;;;;;;;67.90;34.40;;;;;;;-0.85;97.60;99497.26;103651;1297;138634;-76
2023/01/04 06:43:39;;;;;;;67.40;34.40;;;;;;;-0.86;97.53;99493.02;103998;1306;22350;-76
2023/01/04 06:46:06;;;;;;;68.50;32.50;;;;;;;-0.86;97.32;99492.72;104281;1289;22519;-76
2023/01/04 06:48:33;;;;;;;58.40;30.30;;;;;;;-0.89;96.82;99489.80;103218;1313;138088;-75
2023/01/04 06:51:00;;;;;;;70.40;33.00;;;;;;;-0.97;96.21;99496.76;103066;1312;23943;-75
2023/01/04 06:53:27;;;;;;;57.40;31.10;;;;;;;-1.06;95.59;99499.19;104120;1313;138093;-75
2023/01/04 06:55:55;;;;;;;59.10;30.00;;;;;;;-1.13;96.03;99499.33;104081;1297;22501;-75
2023/01/04 06:58:22;;;;;;;57.50;32.10;;;;;;;-1.17;96.18;99498.47;103576;1291;24889;-75
2023/01/04 07:00:53;;;;;;;59.50;32.60;;;;;;;-1.18;96.46;99501.23;102825;1313;138120;-74
2023/01/04 07:03:21;;;;;;;63.80;32.20;;;;;;;-1.17;96.80;99509.17;102979;1313;22545;-75
2023/01/04 07:05:49;;;;;;;61.70;32.30;;;;;;;-1.16;97.37;99509.60;102912;1305;138462;-75
2023/01/04 07:08:16;;;;;;;66.50;33.20;;;;;;;-1.17;97.07;99503.44;103019;1313;23020;-74
2023/01/04 07:10:43;;;;;;;67.00;34.70;;;;;;;-1.15;97.60;99505.92;103033;1294;25213;-74
2023/01/04 07:13:11;;;;;;;68.00;36.40;;;;;;;-1.12;97.65;99497.81;102934;1313;138105;-74
2023/01/04 07:15:39;;;;;;;69.60;35.20;;;;;;;-1.08;98.03;99496.23;103930;1290;22833;-74
2023/01/04 07:18:07;;;;;;;64.20;34.50;;;;;;;-1.00;99.06;99492.59;103839;1288;138296;-74
2023/01/04 07:20:36;;;;;;;75.80;36.60;;;;;;;-0.88;99.49;99488.96;104114;1284;22470;-75
2023/01/04 07:23:04;;;;;;;85.10;39.40;;;;;;;-0.81;99.53;99483.14;104618;1288;138450;-74
2023/01/04 07:25:32;;;;;;;79.70;38.80;;;;;;;-0.74;99.04;99483.91;104214;1290;22491;-75
2023/01/04 07:27:59;;;;;;;79.30;40.10;;;;;;;-0.68;99.09;99482.63;103250;1304;24239;-74
2023/01/04 07:30:27;;;;;;;80.90;40.00;;;;;;;-0.62;99.23;99477.52;102961;1298;137914;-74
2023/01/04 07:32:54;;;;;;;86.80;42.40;;;;;;;-0.56;98.97;99478.77;103048;1312;24260;-74
2023/01/04 07:35:22;;;;;;;74.60;40.00;;;;;;;-0.50;99.31;99473.42;104530;1281;138171;-74
2023/01/04 07:37:50;;;;;;;80.00;39.50;;;;;;;-0.41;99.49;99475.52;103378;1294;22867;-74
2023/01/04 07:40:17;;;;;;;75.60;36.40;;;;;;;-0.37;99.01;99476.98;104248;1292;25438;-74
2023/01/04 07:42:52;;;;;;;66.60;33.30;;;;;;;-0.39;97.50;99472.48;104223;1288;137931;-74
2023/01/04 07:45:20;;;;;;;60.10;32.80;;;;;;;-0.45;96.42;99470.35;103891;1290;25338;-74
2023/01/04 07:47:47;;;;;;;61.20;33.20;;;;;;;-0.52;95.15;99474.33;103979;1289;138112;-75
2023/01/04 07:50:15;;;;;;;62.80;33.40;;;;;;;-0.62;95.44;99472.58;103416;1287;22485;-74
2023/01/04 07:52:42;;;;;;;66.80;33.20;;;;;;;-0.67;95.54;99479.70;103379;1306;22509;-75
2023/01/04 07:55:09;;;;;;;62.70;32.80;;;;;;;-0.72;95.07;99481.00;102928;1304;137965;-74
2023/01/04 07:57:36;;;;;;;72.40;34.20;;;;;;;-0.75;95.15;99474.69;103040;1297;22471;-75
2023/01/04 08:00:04;;;;;;;64.70;33.40;;;;;;;-0.74;95.87;99471.55;103050;1304;139543;-75
2023/01/04 08:02:39;;;;;;;69.50;34.10;;;;;;;-0.69;96.45;99470.17;102853;1307;26259;-75
2023/01/04 08:05:07;;;;;;;68.90;34.80;;;;;;;-0.61;97.37;99468.95;102913;1305;138150;-74
2023/01/04 08:07:34;;;;;;;76.90;36.80;;;;;;;-0.53;97.65;99469.36;103066;1285;22475;-74
2023/01/04 08:10:02;;;;;;;72.90;36.20;;;;;;;-0.47;97.92;99465.58;103059;1312;24387;-74
2023/01/04 08:12:29;;;;;;;73.90;37.80;;;;;;;-0.38;98.25;99463.83;102822;1313;137843;-74
2023/01/04 08:14:57;;;;;;;81.50;39.20;;;;;;;-0.31;98.13;99459.26;103200;1298;22487;-72
2023/01/04 08:17:24;;;;;;;80.60;39.30;;;;;;;-0.24;98.30;99461.21;102976;1298;138194;-72
2023/01/04 08:19:52;;;;;;;74.00;36.50;;;;;;;-0.17;98.39;99453.25;103115;1313;22646;-72
2023/01/04 08:22:20;;;;;;;75.50;36.30;;;;;;;-0.10;98.61;99443.79;103045;1300;22481;-72
2023/01/04 08:24:47;;;;;;;75.70;37.40;;;;;;;-0.03;98.82;99438.40;103146;1298;138914;-72
2023/01/04 08:27:14;;;;;;;69.20;35.10;;;;;;;0.05;98.78;99435.88;102949;1298;22501;-72
2023/01/04 08:29:41;;;;;;;71.80;37.20;;;;;;;0.13;99.20;99430.27;102879;1291;138432;-72
2023/01/04 08:32:09;;;;;;;71.80;35.70;;;;;;;0.21;98.94;99438.23;102952;1291;23875;-72
2023/01/04 08:34:36;;;;;;;75.40;37.30;;;;;;;0.28;98.83;99446.95;102914;1312;22538;-72
2023/01/04 08:37:03;;;;;;;75.90;39.60;;;;;;;0.34;98.76;99447.44;102869;1298;138249;-72
2023/01/04 08:39:34;;;;;;;79.10;38.90;;;;;;;0.40;98.84;99447.75;102818;1313;22503;-72
2023/01/04 08:42:02;;;;;;;75.10;37.40;;;;;;;0.46;98.77;99453.39;104080;1288;137828;-73
2023/01/04 08:44:29;;;;;;;77.50;38.40;;;;;;;0.52;98.82;99452.02;104874;1284;22814;-72
2023/01/04 08:46:57;;;;;;;74.70;38.00;;;;;;;0.61;98.93;99447.44;103826;1297;22351;-72
2023/01/04 08:49:25;;;;;;;74.90;37.70;;;;;;;0.69;99.01;99445.90;105406;1289;25213;-73
2023/01/04 08:51:52;;;;;;;73.30;38.90;;;;;;;0.78;98.98;99449.42;104272;1285;25412;-72
2023/01/04 08:54:19;;;;;;;74.80;39.50;;;;;;;0.86;98.88;99444.50;104097;1298;137839;-72
2023/01/04 08:56:46;;;;;;;75.80;39.40;;;;;;;0.94;98.71;99436.36;103621;1296;22281;-72
2023/01/04 08:59:13;;;;;;;81.50;42.00;;;;;;;1.01;98.68;99436.27;104378;1294;138525;-72
2023/01/04 09:01:40;;;;;;;75.60;40.70;;;;;;;1.08;98.34;99438.63;103186;1290;22932;-72
2023/01/04 09:04:08;;;;;;;78.50;40.90;;;;;;;1.15;98.23;99436.55;104490;1285;22364;-73
2023/01/04 09:06:37;;;;;;;69.40;37.10;;;;;;;1.21;98.21;99432.45;105586;1313;139439;-73
2023/01/04 09:09:04;;;;;;;76.00;37.20;;;;;;;1.28;98.06;99432.05;105944;1295;22172;-72
2023/01/04 09:11:32;;;;;;;69.40;35.40;;;;;;;1.35;98.03;99427.11;104878;1305;137937;-72
2023/01/04 09:14:00;;;;;;;63.30;32.50;;;;;;;1.42;97.75;99422.79;104586;1296;23001;-72
2023/01/04 09:16:28;;;;;;;63.20;35.70;;;;;;;1.48;97.60;99422.10;103982;1289;22493;-72
2023/01/04 09:18:56;;;;;;;64.10;34.60;;;;;;;1.55;97.47;99418.49;104092;1297;138728;-72
2023/01/04 09:21:23;;;;;;;67.30;37.50;;;;;;;1.63;97.49;99413.05;103854;1289;24452;-72
2023/01/04 09:23:50;;;;;;;65.30;34.20;;;;;;;1.71;97.46;99410.24;104828;1312;138551;-73
2023/01/04 09:26:22;;;;;;;71.50;35.80;;;;;;;1.78;97.31;99397.64;103297;1313;22959;-72
2023/01/04 09:28:52;;;;;;;67.40;35.60;;;;;;;1.86;97.28;99393.86;104083;1298;23963;-72
2023/01/04 09:31:21;;;;;;;66.70;35.00;;;;;;;1.94;97.32;99386.79;103652;1290;137760;-72
2023/01/04 09:33:49;;;;;;;68.50;35.00;;;;;;;2.01;96.95;99379.92;103497;1303;22469;-72
2023/01/04 09:36:17;;;;;;;58.90;33.10;;;;;;;2.07;96.85;99379.78;103984;1291;139937;-73
2023/01/04 09:38:45;;;;;;;60.10;30.90;;;;;;;2.14;96.49;99380.88;103794;1291;22475;-72
2023/01/04 09:41:12;;;;;;;59.60;32.00;;;;;;;2.19;96.09;99372.23;103630;1289;138061;-72
2023/01/04 09:43:51;;;;;;;52.30;29.90;;;;;;;2.25;95.80;99366.57;103709;1280;23352;-72
2023/01/04 09:46:25;;;;;;;55.10;28.40;;;;;;;2.31;95.59;99362.17;104442;1289;22591;-72
2023/01/04 09:49:02;;;;;;;46.90;25.50;;;;;;;2.38;95.59;99358.20;104345;1288;137961;-72
2023/01/04 09:51:36;;;;;;;45.10;23.90;;;;;;;2.46;95.55;99350.31;105012;1298;22605;-73
2023/01/04 09:54:19;;;;;;;42.40;24.10;;;;;;;2.57;95.16;99347.23;103238;1308;138181;-73
2023/01/04 09:56:57;;;;;;;43.30;22.90;;;;;;;2.67;94.51;99343.83;104426;1304;22232;-72
2023/01/04 09:59:31;;;;;;;42.10;23.40;;;;;;;2.74;93.97;99337.73;104158;1298;137955;-72
2023/01/04 10:02:10;;;;;;;41.20;23.00;;;;;;;2.82;93.75;99329.58;103551;1291;22507;-72
2023/01/04 10:04:43;;;;;;;;;;;;;;;2.90;93.59;99322.06;102910;1297;25291;-72
2023/01/04 10:07:31;;;;;;;45.50;22.90;;;;;;;2.97;93.31;99310.36;103409;1297;124369;-73
2023/01/04 10:10:00;;;;;;;45.10;23.70;;;;;;;3.02;92.76;99300.89;103379;1294;26164;-73
2023/01/04 10:12:40;;;;;;;44.00;23.00;;;;;;;3.07;92.19;99291.05;103855;1289;221974;-73
2023/01/04 10:15:38;;;;;;;40.00;22.40;;;;;;;3.13;92.00;99288.09;103706;1297;24320;-74
2023/01/04 10:18:20;;;;;;;36.30;21.10;;;;;;;3.17;91.83;99276.21;103459;1288;139515;-73
2023/01/04 10:20:58;;;;;;;35.20;19.70;;;;;;;3.25;91.75;99271.23;103381;1308;22476;-73
2023/01/04 10:24:06;;;;;;;35.30;19.30;;;;;;;3.32;91.46;99263.25;102841;1313;137862;-74
2023/01/04 10:26:44;;;;;;;39.20;20.80;;;;;;;3.41;91.29;99256.48;102389;1300;22519;-74
2023/01/04 10:29:26;;;;;;;34.70;18.90;;;;;;;3.48;90.88;99249.70;102312;1297;137931;-74
2023/01/04 10:32:02;;;;;;;36.90;19.00;;;;;;;3.55;90.33;99245.44;102402;1317;22614;-74
2023/01/04 10:34:36;;;;;;;35.20;18.70;;;;;;;3.62;90.23;99242.66;102467;1294;25339;-75
2023/01/04 10:37:10;;;;;;;37.10;19.00;;;;;;;3.68;89.74;99239.85;102301;1317;138064;-75
2023/01/04 10:39:37;;;;;;;37.30;19.90;;;;;;;3.76;89.59;99235.48;102492;1300;25037;-75
2023/01/04 10:42:35;;;;;;;46.10;22.40;;;;;;;3.83;89.26;99235.52;102320;1303;138375;-75
2023/01/04 10:45:32;;;;;;;40.10;20.40;;;;;;;3.91;88.65;99224.03;102418;1294;25503;-76
2023/01/04 10:48:11;;;;;;;37.40;21.30;;;;;;;3.97;88.47;99211.40;102287;1317;137783;-76
2023/01/04 10:50:55;;;;;;;41.00;21.50;;;;;;;4.07;88.39;99205.11;102406;1297;26158;-77
2023/01/04 10:53:43;;;;;;;38.80;20.80;;;;;;;4.14;88.10;99204.64;102301;1319;138621;-77
2023/01/04 10:56:16;;;;;;;36.30;18.90;;;;;;;4.23;87.77;99208.63;102432;1317;24254;-77
2023/01/04 10:58:51;;;;;;;35.80;20.60;;;;;;;4.31;87.21;99205.69;102379;1304;22526;-78
2023/01/04 11:01:27;;;;;;;36.70;19.80;;;;;;;4.41;87.29;99201.87;102566;1313;137755;-78
2023/01/04 11:04:10;;;;;;;38.20;19.10;;;;;;;4.52;87.28;99188.11;102789;1313;25269;-78
2023/01/04 11:06:43;;;;;;;36.90;20.60;;;;;;;4.64;86.87;99180.20;102741;1313;138250;-78
2023/01/04 11:09:13;;;;;;;30.70;17.80;;;;;;;4.73;86.51;99171.68;103291;1312;22603;-78
2023/01/04 11:11:44;;;;;;;26.60;16.00;;;;;;;4.83;86.03;99163.29;103653;1311;138001;-79
2023/01/04 11:14:12;;;;;;;26.10;12.90;;;;;;;4.93;85.44;99156.79;104120;1313;24521;-78
2023/01/04 11:16:44;;;;;;;23.00;12.00;;;;;;;5.05;85.12;99150.64;103695;1314;22464;-78
2023/01/04 11:19:11;;;;;;;20.00;11.50;;;;;;;5.17;84.39;99135.10;103344;1294;137948;-78
2023/01/04 11:21:46;;;;;;;22.30;11.50;;;;;;;5.28;84.22;99119.42;103203;1300;22477;-78
2023/01/04 11:24:16;;;;;;;21.80;13.00;;;;;;;5.42;83.39;99112.17;102902;1312;137810;-78
2023/01/04 11:26:47;;;;;;;21.50;11.10;;;;;;;5.52;83.40;99108.27;103255;1312;25416;-78
2023/01/04 11:29:35;;;;;;;23.40;12.10;;;;;;;5.64;82.87;99103.25;103067;1310;138634;-78
2023/01/04 11:32:18;;;;;;;16.70;10.00;;;;;;;5.73;81.94;99095.91;102829;1313;24753;-78
2023/01/04 11:34:58;;;;;;;18.20;10.60;;;;;;;5.79;81.53;99093.87;102800;1313;24445;-78
2023/01/04 11:37:32;;;;;;;18.30;9.80;;;;;;;5.85;81.11;99089.70;102659;1292;137678;-79
2023/01/04 11:40:19;;;;;;;17.20;9.80;;;;;;;5.90;80.92;99077.52;102863;1297;22482;-78
2023/01/04 11:42:52;;;;;;;17.70;9.70;;;;;;;5.96;80.41;99077.06;102822;1313;137567;-79
2023/01/04 11:45:21;;;;;;;17.60;9.40;;;;;;;6.03;80.15;99073.58;102967;1313;25365;-78
2023/01/04 11:47:56;;;;;;;16.70;8.60;;;;;;;6.10;79.92;99060.46;102961;1313;137789;-78
2023/01/04 11:50:39;;;;;;;14.20;8.60;;;;;;;6.18;79.16;99060.41;103229;1298;23953;-78
2023/01/04 11:53:33;;;;;;;14.60;8.00;;;;;;;6.24;78.85;99056.45;102969;1313;23211;-78
2023/01/04 11:56:15;;;;;;;14.50;8.10;;;;;;;6.30;78.19;99054.10;103191;1289;22476;-79
2023/01/04 11:59:00;;;;;;;14.20;8.20;;;;;;;6.37;77.78;99051.76;103645;1292;25275;-78
2023/01/04 12:01:28;;;;;;;12.00;7.50;;;;;;;6.41;77.76;99050.13;103395;1287;137677;-78
2023/01/04 12:03:55;;;;;;;13.80;7.60;;;;;;;6.44;77.07;99049.98;103747;1288;22486;-77
2023/01/04 12:06:38;;;;;;;15.10;7.60;;;;;;;6.46;76.65;99044.79;102897;1296;137533;-76
2023/01/04 12:09:12;;;;;;;11.20;7.20;;;;;;;6.47;76.68;99036.87;102878;1312;22477;-76
2023/01/04 12:11:49;;;;;;;12.20;7.20;;;;;;;6.50;76.70;99030.05;102928;1290;138156;-77
2023/01/04 12:14:36;;;;;;;15.90;9.80;;;;;;;6.53;76.73;99023.29;102845;1290;22630;-75
2023/01/04 12:17:11;;;;;;;18.30;10.00;;;;;;;6.56;76.66;99013.84;102963;1292;22539;-77
2023/01/04 12:19:44;;;;;;;16.60;9.10;;;;;;;6.60;76.40;99005.96;102916;1305;137700;-78
2023/01/04 12:22:37;;;;;;;18.90;9.60;;;;;;;6.62;76.25;98999.14;103248;1312;24836;-77